Time;durP1;ratioP1;P1;durP2;ratioP2;P2;SDS_P1;SDS_P2;PMS_P1;PMS_P2;Temp;Humidity;BMP_temperature;BMP_pressure;BME280_temperature;BME280_humidity;BME280_pressure;Samples;Min_cycle;Max_cycle;Signal;HPM_P1;HPM_P2
2022/10/19 00:01:21;;;;;;;0.30;0.30;;;12.10;99.90;13.50;102572.00;;;;5091358;28;20193;-69
2022/10/19 00:03:50;;;;;;;0.30;0.30;;;12.40;99.90;13.70;102574.00;;;;5074731;28;20302;-69
2022/10/19 00:07:04;;;;;;;0.30;0.30;;;12.40;99.90;13.20;102579.00;;;;5091291;28;20183;-69
2022/10/19 00:09:33;;;;;;;0.30;0.30;;;12.30;99.90;13.50;102578.00;;;;5074129;28;20273;-69
2022/10/19 00:12:21;;;;;;;0.30;0.30;;;12.30;99.90;13.50;102530.00;;;;5091054;28;20565;-69
2022/10/19 00:14:47;;;;;;;0.30;0.30;;;12.50;99.90;13.60;102555.00;;;;5090848;28;20186;-69
2022/10/19 00:17:13;;;;;;;2.07;1.90;;;12.50;99.90;12.90;102564.00;;;;5091172;28;20180;-68
2022/10/19 00:19:39;;;;;;;0.30;0.30;;;12.30;99.90;12.70;102567.00;;;;5090833;28;20315;-69
2022/10/19 00:22:05;;;;;;;0.90;0.90;;;12.10;99.90;12.30;102564.00;;;;5090982;28;20215;-69
2022/10/19 00:24:31;;;;;;;0.20;0.20;;;12.00;99.90;12.50;102558.00;;;;5074270;28;20240;-69
2022/10/19 00:26:57;;;;;;;0.20;0.20;;;11.90;99.90;12.60;102569.00;;;;5091163;28;20185;-69
2022/10/19 00:29:23;;;;;;;0.30;0.30;;;11.90;99.90;12.70;102573.00;;;;5091092;28;20178;-69
2022/10/19 00:31:50;;;;;;;0.30;0.30;;;11.90;99.90;12.60;102546.00;;;;5074914;28;20302;-69
2022/10/19 00:34:16;;;;;;;1.00;0.90;;;11.90;99.90;12.70;102561.00;;;;5090803;28;20181;-69
2022/10/19 00:37:00;;;;;;;0.30;0.30;;;11.90;99.90;13.00;102565.00;;;;5090648;28;20273;-69
2022/10/19 00:39:43;;;;;;;0.60;0.60;;;12.00;99.90;13.10;102562.00;;;;5075822;28;20199;-69
2022/10/19 00:42:55;;;;;;;0.30;0.30;;;12.10;99.90;13.10;102578.00;;;;5074678;28;20183;-69
2022/10/19 00:45:39;;;;;;;0.40;0.40;;;12.10;99.90;13.50;102575.00;;;;5074130;28;20205;-69
2022/10/19 00:48:05;;;;;;;0.37;0.37;;;12.20;99.90;12.80;102573.00;;;;5075094;28;20251;-68
2022/10/19 00:50:31;;;;;;;0.20;0.20;;;12.20;99.90;11.90;102548.00;;;;5090559;28;20199;-68
2022/10/19 00:52:57;;;;;;;0.20;0.20;;;11.80;99.90;12.90;102518.00;;;;5090435;28;20650;-69
2022/10/19 00:55:24;;;;;;;0.30;0.30;;;11.80;99.90;12.80;102558.00;;;;5089178;28;20173;-69
2022/10/19 00:57:51;;;;;;;0.30;0.30;;;11.80;99.90;12.80;102562.00;;;;5090714;28;20189;-69
2022/10/19 01:00:17;;;;;;;0.30;0.30;;;11.80;99.90;13.00;102581.00;;;;5090269;28;20196;-69
2022/10/19 01:02:43;;;;;;;0.30;0.30;;;12.00;99.90;13.20;102570.00;;;;5090212;28;20189;-69
2022/10/19 01:05:10;;;;;;;0.30;0.30;;;12.10;99.90;12.80;102558.00;;;;5090205;28;20184;-69
2022/10/19 01:07:36;;;;;;;0.30;0.30;;;12.10;99.90;13.10;102560.00;;;;5090085;28;20177;-69
2022/10/19 01:10:02;;;;;;;0.30;0.30;;;12.00;99.90;13.20;102567.00;;;;5089834;28;20181;-69
2022/10/19 01:12:43;;;;;;;0.30;0.30;;;12.10;99.90;13.30;102574.00;;;;5090008;28;20704;-68
2022/10/19 01:15:19;;;;;;;0.30;0.30;;;12.20;99.90;13.10;102557.00;;;;5074384;28;20197;-69
2022/10/19 01:18:17;;;;;;;0.47;0.47;;;12.10;99.90;12.50;102565.00;;;;5074260;28;20266;-68
2022/10/19 01:21:28;;;;;;;0.30;0.30;;;12.00;99.90;12.70;102520.00;;;;5089975;28;20562;-68
2022/10/19 01:24:27;;;;;;;0.30;0.30;;;11.80;99.90;12.00;102568.00;;;;5074579;28;20314;-69
2022/10/19 01:27:16;;;;;;;0.30;0.30;;;11.70;99.90;12.60;102528.00;;;;5089829;28;20181;-69
2022/10/19 01:30:53;;;;;;;0.40;0.40;;;11.70;99.90;12.70;102571.00;;;;5072909;28;20670;-68
2022/10/19 01:33:37;;;;;;;0.30;0.30;;;11.70;99.90;12.90;102534.00;;;;5070312;28;20253;-68
2022/10/19 01:36:40;;;;;;;0.80;0.80;;;11.80;99.90;12.00;102575.00;;;;5072755;28;20666;-69
2022/10/19 01:39:38;;;;;;;0.63;0.63;;;11.60;99.90;12.40;102575.00;;;;5072350;28;20535;-69
2022/10/19 01:42:43;;;;;;;0.30;0.30;;;11.60;99.90;12.70;102569.00;;;;5089500;28;20177;-69
2022/10/19 01:45:28;;;;;;;0.20;0.20;;;11.70;99.90;12.10;102561.00;;;;5089452;28;20187;-69
2022/10/19 01:48:07;;;;;;;0.37;0.37;;;11.40;99.90;12.40;102551.00;;;;5089567;28;20196;-69
2022/10/19 01:50:42;;;;;;;0.53;0.53;;;11.50;99.90;12.50;102553.00;;;;5089888;28;20177;-69
2022/10/19 01:53:11;;;;;;;0.37;0.37;;;11.60;99.90;12.40;102558.00;;;;5089018;28;20554;-69
2022/10/19 01:55:42;;;;;;;0.33;0.33;;;11.60;99.90;12.40;102541.00;;;;5089335;28;20652;-68
2022/10/19 01:58:17;;;;;;;0.93;0.93;;;11.60;99.90;11.80;102534.00;;;;5089512;28;20191;-68
2022/10/19 02:00:47;;;;;;;0.30;0.30;;;11.40;99.90;12.30;102542.00;;;;5089323;28;20652;-68
2022/10/19 02:03:19;;;;;;;0.70;0.70;;;11.40;99.90;11.70;102540.00;;;;5088995;28;20185;-68
2022/10/19 02:05:49;;;;;;;0.73;0.73;;;11.40;99.90;12.00;102528.00;;;;5073710;28;20299;-68
2022/10/19 02:08:26;;;;;;;0.30;0.30;;;11.40;99.90;12.00;102490.00;;;;5088606;28;20520;-69
2022/10/19 02:10:57;;;;;;;0.37;0.37;;;11.40;99.90;11.90;102526.00;;;;5089192;28;20177;-68
2022/10/19 02:13:27;;;;;;;0.77;0.60;;;11.40;99.90;12.00;102513.00;;;;5088951;28;20219;-68
2022/10/19 02:15:58;;;;;;;0.23;0.23;;;11.40;99.90;12.40;102519.00;;;;5089050;28;20188;-68
2022/10/19 02:18:31;;;;;;;0.40;0.40;;;11.40;99.90;12.60;102524.00;;;;5088926;28;20538;-68
2022/10/19 02:21:00;;;;;;;0.30;0.30;;;11.50;99.90;12.50;102518.00;;;;5071970;28;20633;-69
2022/10/19 02:23:26;;;;;;;3.13;2.10;;;11.50;99.90;12.40;102511.00;;;;5088823;28;20181;-68
2022/10/19 02:25:53;;;;;;;0.20;0.20;;;11.60;99.90;12.10;102506.00;;;;5089192;28;20181;-68
2022/10/19 02:28:25;;;;;;;0.30;0.30;;;11.60;99.90;12.50;102507.00;;;;5088745;28;20199;-68
2022/10/19 02:30:51;;;;;;;0.40;0.40;;;11.60;99.90;11.90;102508.00;;;;5089229;28;20703;-68
2022/10/19 02:33:17;;;;;;;0.27;0.27;;;11.60;99.90;11.90;102449.00;;;;5088606;28;20304;-68
2022/10/19 02:35:43;;;;;;;0.70;0.70;;;11.40;99.90;11.80;102478.00;;;;5072108;28;20177;-68
2022/10/19 02:38:14;;;;;;;0.30;0.30;;;11.40;99.90;12.20;102482.00;;;;5088384;28;20223;-68
2022/10/19 02:40:52;;;;;;;1.23;0.50;;;11.50;99.90;12.10;102471.00;;;;5088975;28;20183;-68
2022/10/19 02:43:21;;;;;;;0.50;0.50;;;11.50;99.90;12.00;102476.00;;;;5088475;28;20219;-69
2022/10/19 02:45:57;;;;;;;0.20;0.20;;;11.50;99.90;12.10;102442.00;;;;5088656;28;20605;-68
2022/10/19 02:48:25;;;;;;;0.57;0.57;;;11.40;99.90;12.10;102475.00;;;;5089076;28;20191;-68
2022/10/19 02:50:51;;;;;;;0.30;0.30;;;11.50;99.90;11.90;102433.00;;;;5088384;28;20179;-69
2022/10/19 02:53:17;;;;;;;0.30;0.30;;;11.40;99.90;12.20;102477.00;;;;5088537;28;20270;-68
2022/10/19 02:55:49;;;;;;;0.30;0.30;;;11.40;99.90;12.10;102462.00;;;;5089002;28;20182;-68
2022/10/19 02:58:17;;;;;;;0.50;0.50;;;11.50;99.90;12.30;102449.00;;;;5088158;28;20673;-69
2022/10/19 03:00:46;;;;;;;2.00;0.43;;;11.60;99.90;12.20;102455.00;;;;5088821;28;20315;-69
2022/10/19 03:03:12;;;;;;;0.57;0.57;;;11.50;99.90;12.00;102456.00;;;;5088262;28;20199;-69
2022/10/19 03:05:38;;;;;;;1.43;1.33;;;11.50;99.90;12.10;102466.00;;;;5088513;28;20181;-68
2022/10/19 03:08:04;;;;;;;1.77;1.47;;;11.50;99.90;12.00;102447.00;;;;5072846;28;20273;-69
2022/10/19 03:10:33;;;;;;;0.40;0.40;;;11.50;99.90;12.00;102443.00;;;;5088851;28;20167;-69
2022/10/19 03:12:59;;;;;;;0.60;0.60;;;11.50;99.90;12.10;102454.00;;;;5088240;28;20234;-69
2022/10/19 03:15:27;;;;;;;0.60;0.60;;;11.50;99.90;12.10;102450.00;;;;5088897;28;20207;-69
2022/10/19 03:17:54;;;;;;;0.30;0.30;;;11.50;99.90;12.20;102453.00;;;;5073026;28;20262;-68
2022/10/19 03:20:26;;;;;;;0.60;0.50;;;11.50;99.90;12.20;102457.00;;;;5076268;28;20189;-69
2022/10/19 03:22:55;;;;;;;0.20;0.20;;;11.60;99.90;12.00;102448.00;;;;5091891;28;20637;-68
2022/10/19 03:25:21;;;;;;;0.33;0.33;;;11.60;99.90;12.30;102447.00;;;;5074911;28;20584;-69
2022/10/19 03:27:47;;;;;;;1.17;1.07;;;11.70;99.90;12.30;102450.00;;;;5092308;28;20182;-68
2022/10/19 03:30:12;;;;;;;1.37;0.73;;;11.60;99.90;12.30;102445.00;;;;5092162;28;20166;-68
2022/10/19 03:32:38;;;;;;;1.07;1.03;;;11.60;99.90;12.30;102442.00;;;;5092148;28;20207;-69
2022/10/19 03:35:08;;;;;;;0.43;0.43;;;11.60;99.90;12.30;102439.00;;;;5091946;28;20214;-69
2022/10/19 03:37:34;;;;;;;0.80;0.80;;;11.60;99.90;12.30;102429.00;;;;5091692;28;20762;-69
2022/10/19 03:39:59;;;;;;;0.60;0.60;;;11.50;99.90;12.50;102438.00;;;;5091809;28;20622;-68
2022/10/19 03:42:28;;;;;;;0.77;0.43;;;11.60;99.90;12.50;102435.00;;;;5092112;28;20272;-69
2022/10/19 03:44:54;;;;;;;0.30;0.30;;;11.70;99.90;12.10;102443.00;;;;5076215;28;20186;-68
2022/10/19 03:47:22;;;;;;;0.80;0.80;;;11.60;99.90;12.20;102454.00;;;;5091549;28;20208;-69
2022/10/19 03:49:49;;;;;;;1.20;0.63;;;11.50;99.90;12.20;102397.00;;;;5091556;28;20603;-68
2022/10/19 03:52:21;;;;;;;0.50;0.50;;;11.50;99.90;12.20;102452.00;;;;5091438;28;20286;-69
2022/10/19 03:54:50;;;;;;;0.40;0.40;;;11.60;99.90;12.50;102449.00;;;;5091796;28;20213;-68
2022/10/19 03:57:16;;;;;;;0.47;0.47;;;11.60;99.90;12.90;102451.00;;;;5091630;28;20272;-69
2022/10/19 03:59:48;;;;;;;0.60;0.60;;;11.70;99.90;12.50;102441.00;;;;5091523;28;20249;-69
2022/10/19 04:02:16;;;;;;;0.70;0.70;;;11.70;99.90;12.50;102451.00;;;;5091635;28;20207;-68
2022/10/19 04:04:42;;;;;;;0.30;0.30;;;11.60;99.90;12.70;102412.00;;;;5091227;28;20184;-69
2022/10/19 04:07:10;;;;;;;0.30;0.30;;;11.70;99.90;12.90;102440.00;;;;5091123;28;20182;-69
2022/10/19 04:09:36;;;;;;;0.50;0.50;;;11.80;99.90;12.50;102450.00;;;;5075803;28;20628;-69
2022/10/19 04:12:02;;;;;;;0.50;0.50;;;11.60;99.90;12.40;102444.00;;;;5091143;28;20218;-69
2022/10/19 04:14:31;;;;;;;0.30;0.30;;;11.50;99.90;12.30;102453.00;;;;5091123;28;20640;-69
2022/10/19 04:17:02;;;;;;;0.77;0.40;;;11.50;99.90;12.20;102445.00;;;;5091399;28;20189;-69
2022/10/19 04:19:29;;;;;;;6.93;0.43;;;11.40;99.90;11.50;102449.00;;;;5090714;28;20174;-69
2022/10/19 04:21:55;;;;;;;0.60;0.60;;;11.30;99.90;11.80;102460.00;;;;5091418;28;20590;-69
2022/10/19 04:24:21;;;;;;;0.30;0.30;;;11.20;99.90;12.30;102457.00;;;;5091706;28;20268;-69
2022/10/19 04:26:52;;;;;;;1.73;1.63;;;11.30;99.90;11.90;102460.00;;;;5090855;28;20178;-69
2022/10/19 04:29:22;;;;;;;0.60;0.60;;;11.30;99.90;11.80;102412.00;;;;5090806;28;20212;-69
2022/10/19 04:31:50;;;;;;;0.20;0.20;;;11.20;99.90;12.30;102454.00;;;;5075081;28;20590;-69
2022/10/19 04:34:18;;;;;;;0.57;0.57;;;11.30;99.90;12.20;102454.00;;;;5090361;28;20544;-69
2022/10/19 04:37:01;;;;;;;1.13;1.03;;;11.30;99.90;12.50;102438.00;;;;5075082;28;20200;-69
2022/10/19 04:39:27;;;;;;;0.50;0.50;;;11.40;99.90;12.30;102437.00;;;;5091112;28;20268;-69
2022/10/19 04:41:53;;;;;;;0.73;0.73;;;11.40;99.90;12.60;102431.00;;;;5090605;28;20254;-69
2022/10/19 04:44:21;;;;;;;0.70;0.40;;;11.50;99.90;12.00;102426.00;;;;5090395;28;20250;-68
2022/10/19 04:46:47;;;;;;;0.20;0.20;;;11.30;99.90;11.80;102421.00;;;;5089890;28;20193;-69
2022/10/19 04:49:13;;;;;;;0.87;0.87;;;11.20;99.90;11.80;102422.00;;;;5090562;28;20188;-69
2022/10/19 04:51:39;;;;;;;0.73;0.73;;;11.10;99.90;11.60;102424.00;;;;5090363;28;20291;-69
2022/10/19 04:54:05;;;;;;;0.63;0.63;;;11.00;99.90;11.30;102432.00;;;;5090513;28;20185;-69
2022/10/19 04:56:31;;;;;;;0.60;0.60;;;10.90;99.90;11.50;102437.00;;;;5090621;28;20165;-68
2022/10/19 04:58:59;;;;;;;0.53;0.53;;;11.00;99.90;11.30;102434.00;;;;5090606;28;20181;-69
2022/10/19 05:01:30;;;;;;;0.20;0.20;;;10.90;99.90;11.30;102420.00;;;;5090068;28;20606;-68
2022/10/19 05:03:59;;;;;;;2.17;2.07;;;10.70;99.90;10.90;102428.00;;;;5090558;28;20633;-69
2022/10/19 05:06:26;;;;;;;1.27;1.17;;;10.60;99.90;10.90;102429.00;;;;5090196;28;20189;-68
2022/10/19 05:08:52;;;;;;;1.53;0.63;;;10.50;99.90;11.30;102430.00;;;;5090058;28;20182;-69
2022/10/19 05:11:18;;;;;;;0.50;0.50;;;10.50;99.90;11.30;102440.00;;;;5089592;28;20228;-68
2022/10/19 05:13:48;;;;;;;0.30;0.30;;;10.50;99.90;10.80;102431.00;;;;5089896;28;20189;-69
2022/10/19 05:16:18;;;;;;;0.27;0.27;;;10.50;99.90;11.30;102445.00;;;;5089705;28;20674;-69
2022/10/19 05:18:57;;;;;;;0.40;0.40;;;10.50;99.90;11.30;102449.00;;;;5090133;28;20192;-68
2022/10/19 05:21:26;;;;;;;0.37;0.37;;;10.60;99.90;11.20;102442.00;;;;5089754;28;20546;-69
2022/10/19 05:23:54;;;;;;;0.93;0.93;;;10.60;99.90;11.00;102434.00;;;;5073119;28;20169;-68
2022/10/19 05:26:24;;;;;;;0.93;0.93;;;10.40;99.90;11.00;102429.00;;;;5089654;28;20172;-68
2022/10/19 05:28:58;;;;;;;0.40;0.40;;;10.40;99.90;11.30;102425.00;;;;5090294;28;20168;-68
2022/10/19 05:31:27;;;;;;;0.97;0.93;;;10.40;99.90;11.00;102418.00;;;;5089092;28;20340;-68
2022/10/19 05:33:57;;;;;;;0.40;0.40;;;10.50;99.90;11.10;102352.00;;;;5089867;28;20184;-68
2022/10/19 05:36:33;;;;;;;0.60;0.60;;;10.50;99.90;11.00;102394.00;;;;5089457;28;20648;-68
2022/10/19 05:39:03;;;;;;;0.70;0.40;;;10.40;99.90;11.20;102418.00;;;;5089063;28;20172;-68
2022/10/19 05:41:33;;;;;;;0.30;0.30;;;10.40;99.90;11.00;102409.00;;;;5072249;28;20187;-68
2022/10/19 05:44:00;;;;;;;0.90;0.90;;;10.40;99.90;11.10;102397.00;;;;5089436;28;20202;-68
2022/10/19 05:46:29;;;;;;;0.40;0.40;;;10.40;99.90;11.30;102396.00;;;;5089210;28;20686;-68
2022/10/19 05:48:59;;;;;;;0.40;0.40;;;10.50;99.90;11.50;102353.00;;;;5089320;28;20169;-68
2022/10/19 05:51:26;;;;;;;1.30;1.30;;;10.60;99.90;11.00;102404.00;;;;5088816;28;20197;-68
2022/10/19 05:54:18;;;;;;;0.40;0.40;;;10.60;99.90;11.50;102344.00;;;;5089664;28;20529;-69
2022/10/19 05:56:44;;;;;;;0.30;0.30;;;10.60;99.90;11.10;102398.00;;;;5089796;28;20177;-68
2022/10/19 05:59:18;;;;;;;0.30;0.30;;;10.60;99.90;10.80;102388.00;;;;5089130;28;20181;-69
2022/10/19 06:01:45;;;;;;;0.50;0.50;;;10.50;99.90;11.10;102383.00;;;;5089252;28;20508;-69
2022/10/19 06:04:17;;;;;;;0.60;0.57;;;10.50;99.90;11.10;102367.00;;;;5089502;28;20179;-68
2022/10/19 06:06:52;;;;;;;0.30;0.30;;;10.50;99.90;10.90;102341.00;;;;5072607;28;20669;-68
2022/10/19 06:09:24;;;;;;;0.97;0.97;;;10.40;99.90;11.10;102395.00;;;;5089550;28;20181;-69
2022/10/19 06:11:49;;;;;;;0.30;0.30;;;10.40;99.90;11.20;102402.00;;;;5088906;28;20203;-69
2022/10/19 06:14:15;;;;;;;0.60;0.60;;;10.40;99.90;10.90;102405.00;;;;5088633;28;20182;-68
2022/10/19 06:16:50;;;;;;;1.03;1.03;;;10.40;99.90;10.80;102365.00;;;;5079917;28;20185;-68
2022/10/19 06:19:34;;;;;;;0.53;0.53;;;10.30;99.90;11.40;102393.00;;;;5052010;28;20192;-69
2022/10/19 06:22:02;;;;;;;0.60;0.60;;;10.40;99.90;10.70;102402.00;;;;5052015;28;20180;-69
2022/10/19 06:24:31;;;;;;;1.03;1.03;;;10.30;99.90;11.30;102386.00;;;;5051983;28;20239;-68
2022/10/19 06:26:59;;;;;;;2.43;1.67;;;10.40;99.90;11.10;102400.00;;;;5035598;28;20227;-68
2022/10/19 06:29:43;;;;;;;0.53;0.53;;;10.50;99.90;11.20;102377.00;;;;5035537;28;20178;-68
2022/10/19 06:32:12;;;;;;;0.93;0.87;;;10.50;99.90;11.20;102376.00;;;;5037286;28;20210;-68
2022/10/19 06:34:41;;;;;;;1.47;0.90;;;10.50;99.90;11.00;102372.00;;;;5051868;28;20269;-68
2022/10/19 06:37:07;;;;;;;1.47;1.40;;;10.50;99.90;11.20;102323.00;;;;5052052;28;20182;-68
2022/10/19 06:39:35;;;;;;;1.90;1.80;;;10.60;99.90;11.10;102361.00;;;;5051846;28;20182;-68
2022/10/19 06:42:04;;;;;;;0.77;0.77;;;10.60;99.90;11.50;102368.00;;;;5035254;28;20193;-68
2022/10/19 06:44:32;;;;;;;1.00;1.00;;;10.70;99.90;11.50;102384.00;;;;5051592;28;20184;-69
2022/10/19 06:46:58;;;;;;;4.63;1.53;;;10.80;99.90;11.40;102382.00;;;;5035129;28;20576;-68
2022/10/19 06:49:24;;;;;;;0.90;0.90;;;10.80;99.90;11.80;102387.00;;;;5052800;28;20187;-68
2022/10/19 06:51:50;;;;;;;1.40;1.30;;;10.90;99.90;11.60;102389.00;;;;5051696;28;20315;-68
2022/10/19 06:54:16;;;;;;;2.27;1.40;;;10.90;99.90;11.30;102381.00;;;;5055222;28;20166;-68
2022/10/19 06:56:45;;;;;;;2.10;1.70;;;10.80;99.90;11.30;102363.00;;;;5057177;28;20187;-69
2022/10/19 06:59:13;;;;;;;0.97;0.83;;;10.80;99.90;11.70;102371.00;;;;5055452;28;20213;-68
2022/10/19 07:01:42;;;;;;;1.67;1.57;;;10.90;99.90;11.70;102362.00;;;;5056962;28;20178;-68
2022/10/19 07:04:08;;;;;;;1.80;1.70;;;11.00;99.90;11.70;102319.00;;;;5039514;28;20639;-68
2022/10/19 07:06:34;;;;;;;3.93;3.50;;;11.10;99.90;11.40;102347.00;;;;5055755;28;20222;-68
2022/10/19 07:09:02;;;;;;;7.83;3.33;;;11.00;99.90;11.40;102350.00;;;;5038826;28;20273;-68
2022/10/19 07:11:31;;;;;;;0.50;0.50;;;11.00;99.90;11.80;102356.00;;;;5055567;28;20174;-68
2022/10/19 07:13:57;;;;;;;5.53;3.60;;;11.10;99.90;11.90;102349.00;;;;5054973;28;20251;-68
2022/10/19 07:19:09;;;;;;;3.70;1.83;;;11.20;99.90;11.80;102323.00;;;;5044552;28;20246;-68
2022/10/19 07:21:40;;;;;;;0.50;0.50;;;11.30;99.90;11.80;102340.00;;;;5056583;28;20182;-68
2022/10/19 07:24:07;;;;;;;5.23;3.67;;;11.30;99.90;11.70;102342.00;;;;5055291;28;20228;-68
2022/10/19 07:26:33;;;;;;;1.90;1.80;;;11.30;99.90;11.60;102335.00;;;;5055073;28;20182;-68
2022/10/19 07:28:59;;;;;;;2.83;2.17;;;11.30;99.90;12.00;102339.00;;;;5055491;28;20171;-68
2022/10/19 07:31:27;;;;;;;0.80;0.80;;;11.40;99.90;12.30;102335.00;;;;5038025;28;20208;-68
2022/10/19 07:33:56;;;;;;;2.13;1.93;;;11.60;99.90;12.00;102291.00;;;;5038543;28;20194;-68
2022/10/19 07:36:24;;;;;;;2.10;1.90;;;11.60;99.90;12.20;102335.00;;;;5054968;28;20641;-69
2022/10/19 07:38:50;;;;;;;4.20;2.83;;;11.70;99.90;12.20;102346.00;;;;5054831;28;20185;-68
2022/10/19 07:41:19;;;;;;;1.57;1.20;;;11.80;99.90;12.40;102351.00;;;;5054993;28;20581;-68
2022/10/19 07:43:47;;;;;;;2.43;1.90;;;11.80;99.90;12.50;102355.00;;;;5054810;28;20589;-69
2022/10/19 07:46:17;;;;;;;3.30;2.10;;;11.90;99.90;12.40;102336.00;;;;5054990;28;20264;-68
2022/10/19 07:48:43;;;;;;;0.70;0.70;;;12.00;99.90;13.00;102345.00;;;;5054917;28;20183;-68
2022/10/19 07:51:11;;;;;;;1.43;1.33;;;12.20;99.90;13.20;102349.00;;;;5038020;28;20209;-68
2022/10/19 07:53:37;;;;;;;6.90;3.97;;;12.50;99.90;12.70;102331.00;;;;5038030;28;20300;-68
2022/10/19 07:56:13;;;;;;;2.63;2.13;;;12.60;99.90;12.60;102345.00;;;;5054371;28;20216;-68
2022/10/19 07:58:40;;;;;;;2.30;2.10;;;12.50;99.90;13.10;102337.00;;;;5054674;28;20223;-68
2022/10/19 08:01:16;;;;;;;8.50;2.73;;;12.60;99.90;13.10;102344.00;;;;5055587;28;20647;-68
2022/10/19 08:03:43;;;;;;;6.17;1.97;;;12.70;99.90;13.40;102327.00;;;;5054349;28;20183;-68
2022/10/19 08:06:15;;;;;;;1.47;1.37;;;12.90;99.90;13.90;102331.00;;;;5054201;28;20185;-68
2022/10/19 08:08:41;;;;;;;0.60;0.60;;;13.20;99.90;14.40;102271.00;;;;5054470;28;20182;-68
2022/10/19 08:11:13;;;;;;;2.20;2.10;;;13.40;99.90;14.30;102322.00;;;;5054069;28;20174;-68
2022/10/19 08:13:39;;;;;;;1.10;0.97;;;13.70;99.90;14.90;102328.00;;;;5055371;28;20259;-68
2022/10/19 08:16:22;;;;;;;2.17;1.33;;;13.90;99.90;14.60;102331.00;;;;5054255;28;20183;-68
2022/10/19 08:18:49;;;;;;;4.23;1.43;;;13.90;99.90;15.00;102331.00;;;;5055538;28;20273;-69
2022/10/19 08:21:15;;;;;;;6.20;0.70;;;14.10;99.90;15.00;102321.00;;;;5054165;28;20181;-69
2022/10/19 08:23:41;;;;;;;3.70;2.10;;;14.10;99.90;15.30;102328.00;;;;5037947;28;20190;-68
2022/10/19 08:26:07;;;;;;;5.37;2.77;;;14.30;99.90;14.40;102291.00;;;;5053981;28;20309;-68
2022/10/19 08:28:32;;;;;;;5.07;0.93;;;14.20;99.90;14.80;102327.00;;;;5054189;28;20193;-68
2022/10/19 08:31:31;;;;;;;0.47;0.47;;;14.20;99.90;15.30;102340.00;;;;5055144;28;20168;-69
2022/10/19 08:33:57;;;;;;;0.87;0.87;;;14.30;99.90;15.40;102345.00;;;;5054186;28;20194;-68
2022/10/19 08:36:23;;;;;;;1.97;0.90;;;14.60;99.90;15.30;102346.00;;;;5053943;28;20176;-69
2022/10/19 08:38:51;;;;;;;0.40;0.40;;;14.60;99.90;15.60;102352.00;;;;5037041;28;20183;-69
2022/10/19 08:41:39;;;;;;;4.80;4.40;;;14.70;99.90;15.90;102340.00;;;;5053772;28;20658;-69
2022/10/19 08:44:45;;;;;;;0.67;0.67;;;14.80;99.90;15.30;102345.00;;;;5054926;28;20200;-69
2022/10/19 08:48:03;;;;;;;1.80;1.23;;;14.90;99.90;15.60;102329.00;;;;5054837;28;20626;-69
2022/10/19 08:50:40;;;;;;;2.23;2.13;;;14.80;99.90;15.70;102301.00;;;;5053441;28;20632;-69
2022/10/19 08:53:14;;;;;;;1.43;1.33;;;15.10;99.90;15.50;102334.00;;;;5053720;28;20207;-69
2022/10/19 08:56:14;;;;;;;3.30;1.97;;;15.00;99.90;15.70;102329.00;;;;5053596;28;20186;-68
2022/10/19 08:59:08;;;;;;;0.47;0.47;;;14.90;99.90;15.30;102278.00;;;;5053247;28;20187;-68
2022/10/19 09:02:00;;;;;;;3.00;2.27;;;14.80;99.90;16.40;102346.00;;;;5053469;28;20531;-69
2022/10/19 09:04:40;;;;;;;0.93;0.93;;;15.20;99.90;16.10;102327.00;;;;5053722;28;20176;-69
2022/10/19 09:07:18;;;;;;;1.60;1.50;;;15.30;99.90;15.70;102316.00;;;;5053057;28;20654;-69
2022/10/19 09:10:09;;;;;;;1.50;1.07;;;15.20;99.90;16.20;102324.00;;;;5054497;28;20291;-69
2022/10/19 09:12:58;;;;;;;0.80;0.80;;;15.30;99.90;16.70;102330.00;;;;5053736;28;20229;-69
2022/10/19 09:15:45;;;;;;;0.60;0.60;;;15.60;99.90;16.90;102341.00;;;;5052956;28;20277;-69
2022/10/19 09:18:26;;;;;;;1.53;1.13;;;15.90;99.90;16.20;102321.00;;;;5036691;28;20185;-69
2022/10/19 09:21:11;;;;;;;1.27;1.17;;;15.80;99.90;16.20;102327.00;;;;5053039;28;20188;-69
2022/10/19 09:23:46;;;;;;;1.00;1.00;;;15.90;99.90;15.70;102322.00;;;;5069363;28;20189;-69
2022/10/19 09:26:17;;;;;;;0.40;0.40;;;15.70;99.90;15.40;102301.00;;;;5052841;28;20216;-69
2022/10/19 09:29:07;;;;;;;1.20;1.20;;;15.20;99.90;15.50;102308.00;;;;5053102;28;20174;-69
2022/10/19 09:31:43;;;;;;;3.83;1.80;;;15.50;99.90;16.50;102311.00;;;;5036204;28;20201;-69
2022/10/19 09:34:24;;;;;;;1.47;0.63;;;15.80;99.90;16.60;102295.00;;;;5053170;28;20188;-69
2022/10/19 09:36:59;;;;;;;0.70;0.70;;;16.00;99.90;16.30;102320.00;;;;5035745;28;20195;-70
2022/10/19 09:39:27;;;;;;;0.53;0.53;;;16.10;99.90;17.10;102322.00;;;;5053025;28;20184;-69
2022/10/19 09:42:07;;;;;;;0.90;0.90;;;16.40;99.90;16.80;102321.00;;;;5052834;28;20221;-69
2022/10/19 09:44:33;;;;;;;3.00;0.70;;;16.40;99.90;16.60;102324.00;;;;5052523;28;20197;-69
2022/10/19 09:47:34;;;;;;;4.20;0.73;;;16.20;99.90;16.80;102323.00;;;;5052638;28;20533;-69
2022/10/19 09:50:21;;;;;;;2.20;1.63;;;16.40;99.90;16.30;102323.00;;;;5052704;28;20581;-69
2022/10/19 09:52:55;;;;;;;1.60;0.83;;;16.20;99.90;16.30;102312.00;;;;5052051;28;20201;-69
2022/10/19 09:56:05;;;;;;;1.40;1.30;;;16.00;99.90;17.00;102326.00;;;;5052535;28;20618;-69
2022/10/19 09:58:33;;;;;;;1.07;0.93;;;16.30;99.90;17.10;102328.00;;;;5051985;28;20191;-69
2022/10/19 10:01:00;;;;;;;0.77;0.63;;;16.60;99.90;16.90;102281.00;;;;5035916;28;20189;-69
2022/10/19 10:03:34;;;;;;;2.40;0.47;;;16.60;99.90;16.40;102279.00;;;;5035491;28;20655;-69
2022/10/19 10:06:20;;;;;;;1.80;1.30;;;16.40;99.90;16.30;102306.00;;;;5035595;28;20288;-69
2022/10/19 10:08:56;;;;;;;0.90;0.90;;;16.30;99.90;17.20;102294.00;;;;5052135;28;20184;-69
2022/10/19 10:11:40;;;;;;;4.50;1.13;;;16.70;99.90;16.80;102311.00;;;;5036248;28;20187;-69
2022/10/19 10:14:30;;;;;;;5.83;2.10;;;16.50;99.90;16.50;102267.00;;;;5051790;28;20220;-69
2022/10/19 10:17:03;;;;;;;0.70;0.70;;;16.70;99.90;17.50;102309.00;;;;5052478;28;20245;-69
2022/10/19 10:19:34;;;;;;;16.40;1.17;;;16.80;99.90;18.10;102336.00;;;;5051904;28;20563;-69
2022/10/19 10:33:27;;;;;;;3.80;2.77;;;16.70;99.90;16.90;102285.00;;;;5126896;27;20528;-69
2022/10/19 10:36:08;;;;;;;1.60;1.33;;;16.60;99.90;17.10;102289.00;;;;5106370;28;20591;-69
2022/10/19 10:38:40;;;;;;;1.23;1.13;;;16.70;99.90;17.50;102286.00;;;;5089369;28;20585;-69
2022/10/19 10:41:16;;;;;;;0.80;0.80;;;16.90;99.90;17.90;102293.00;;;;5106878;28;20182;-69
2022/10/19 10:44:21;;;;;;;1.90;1.80;;;17.20;99.90;17.60;102296.00;;;;5089657;28;20193;-69
2022/10/19 10:47:02;;;;;;;0.83;0.83;;;17.30;99.90;18.50;102295.00;;;;5105833;28;20169;-70
2022/10/19 10:50:05;;;;;;;1.20;1.03;;;17.80;99.90;18.60;102261.00;;;;5105754;28;20183;-70
2022/10/19 10:52:35;;;;;;;3.90;0.87;;;17.80;99.90;18.30;102291.00;;;;5105861;28;20708;-69
2022/10/19 10:55:17;;;;;;;1.07;0.90;;;17.80;99.90;18.30;102283.00;;;;5106280;28;20191;-70
2022/10/19 10:57:49;;;;;;;2.17;1.03;;;17.80;99.90;18.20;102277.00;;;;5106296;28;20288;-69
2022/10/19 11:00:22;;;;;;;1.33;1.23;;;17.70;99.90;18.40;102273.00;;;;5106119;28;20185;-69
2022/10/19 11:03:11;;;;;;;2.70;1.37;;;17.50;99.90;19.20;102297.00;;;;5088922;28;20185;-70
2022/10/19 11:06:01;;;;;;;1.23;1.13;;;18.00;99.90;18.90;102304.00;;;;5105784;28;20199;-70
2022/10/19 11:08:55;;;;;;;0.73;0.73;;;17.90;99.90;18.20;102208.00;;;;5090862;28;20200;-70
2022/10/19 11:11:39;;;;;;;1.30;1.20;;;17.50;99.90;18.30;102266.00;;;;5105482;28;20284;-69
2022/10/19 11:14:45;;;;;;;5.73;1.27;;;17.70;99.90;18.80;102274.00;;;;5105701;28;20180;-70
2022/10/19 11:17:21;;;;;;;1.13;1.10;;;17.90;99.90;19.20;102287.00;;;;5105956;28;20207;-70
2022/10/19 11:19:50;;;;;;;0.80;0.80;;;18.00;99.90;18.60;102255.00;;;;5105574;28;20180;-70
2022/10/19 11:22:57;;;;;;;2.60;1.67;;;17.70;99.90;19.10;102255.00;;;;5090396;28;20184;-70
2022/10/19 11:26:05;;;;;;;1.10;1.07;;;17.90;99.90;18.90;102243.00;;;;5104597;28;20333;-70
2022/10/19 11:29:02;;;;;;;3.83;1.53;;;18.00;99.90;18.70;102237.00;;;;5098783;28;20200;-69
2022/10/19 11:31:53;;;;;;;1.23;1.13;;;18.00;99.90;19.50;102243.00;;;;5089746;28;20343;-70